createdAt,value
2023-04-17T00:00:34.769Z,4.05
2023-04-17T00:03:18.867Z,7.65
2023-04-17T00:05:46.658Z,9.45
2023-04-17T00:08:13.900Z,5.28
2023-04-17T00:10:41.311Z,6.03
2023-04-17T00:13:08.564Z,2.65
2023-04-17T00:15:35.958Z,4.15
2023-04-17T00:18:04.363Z,5.88
2023-04-17T00:20:31.731Z,3.28
2023-04-17T00:22:59.141Z,2.47
2023-04-17T00:25:26.576Z,4.35
2023-04-17T00:27:53.625Z,1.73
2023-04-17T00:30:21.105Z,3.38
2023-04-17T00:32:48.534Z,6.75
2023-04-17T00:35:15.988Z,2.22
2023-04-17T00:37:43.273Z,2.30
2023-04-17T00:40:11.401Z,4.47
2023-04-17T00:42:38.358Z,4.00
2023-04-17T00:45:06.342Z,3.58
2023-04-17T00:47:33.557Z,2.33
2023-04-17T00:50:00.930Z,2.42
2023-04-17T00:52:32.915Z,7.35
2023-04-17T00:55:00.874Z,6.10
2023-04-17T00:57:28.238Z,3.75
2023-04-17T00:59:57.605Z,5.07
2023-04-17T01:04:53.768Z,3.45
2023-04-17T01:07:21.214Z,7.22
2023-04-17T01:09:48.612Z,2.47
2023-04-17T01:12:17.389Z,9.05
2023-04-17T01:14:45.020Z,6.38
2023-04-17T01:17:14.395Z,4.75
2023-04-17T01:19:42.325Z,4.32
2023-04-17T01:22:09.342Z,6.28
2023-04-17T01:24:37.314Z,4.70
2023-04-17T01:27:05.164Z,8.30
2023-04-17T01:29:32.451Z,5.35
2023-04-17T01:31:59.549Z,4.95
2023-04-17T01:34:29.446Z,5.72
2023-04-17T01:36:56.552Z,2.50
2023-04-17T01:39:24.229Z,6.30
2023-04-17T01:41:51.852Z,4.60
2023-04-17T01:44:19.130Z,2.03
2023-04-17T01:46:46.248Z,2.50
2023-04-17T01:49:14.292Z,5.00
2023-04-17T01:51:41.322Z,8.05
2023-04-17T01:54:08.650Z,3.80
2023-04-17T01:56:35.998Z,4.05
2023-04-17T01:59:03.310Z,2.83
2023-04-17T02:01:31.281Z,3.50
2023-04-17T02:03:58.983Z,5.70
2023-04-17T02:06:27.520Z,3.70
2023-04-17T02:08:54.915Z,5.43
2023-04-17T02:11:22.161Z,4.10
2023-04-17T02:13:49.583Z,6.05
2023-04-17T02:16:16.788Z,4.18
2023-04-17T02:18:44.324Z,5.38
2023-04-17T02:21:18.644Z,3.38
2023-04-17T02:23:46.243Z,3.17
2023-04-17T02:26:13.358Z,7.10
2023-04-17T02:28:45.238Z,4.00
2023-04-17T02:31:12.841Z,3.33
2023-04-17T02:33:41.093Z,7.20
2023-04-17T02:36:08.386Z,6.75
2023-04-17T02:38:37.806Z,3.97
2023-04-17T02:43:33.021Z,2.42
2023-04-17T02:46:01.567Z,2.83
2023-04-17T02:48:28.924Z,3.63
2023-04-17T02:50:56.146Z,4.78
2023-04-17T02:53:44.359Z,4.30
2023-04-17T02:56:44.915Z,5.35
2023-04-17T02:59:16.532Z,5.78
2023-04-17T03:02:19.079Z,10.43
2023-04-17T03:05:04.021Z,5.03
2023-04-17T03:07:36.789Z,4.47
2023-04-17T03:10:04.468Z,9.18
2023-04-17T03:16:21.921Z,4.60
2023-04-17T03:19:11.830Z,4.32
2023-04-17T03:22:03.263Z,6.00
2023-04-17T03:24:58.033Z,4.93
2023-04-17T03:27:43.720Z,3.33
2023-04-17T03:30:18.787Z,8.50
2023-04-17T03:33:02.548Z,6.13
2023-04-17T03:35:57.238Z,6.35
2023-04-17T03:38:31.451Z,6.90
2023-04-17T03:41:03.535Z,8.77
2023-04-17T03:43:30.526Z,5.20
2023-04-17T03:45:57.846Z,3.53
2023-04-17T03:48:24.916Z,2.70
2023-04-17T03:50:52.588Z,7.00
2023-04-17T03:53:20.031Z,6.22
2023-04-17T03:55:47.009Z,5.60
2023-04-17T03:58:14.379Z,4.75
2023-04-17T04:00:41.513Z,9.02
2023-04-17T04:03:09.436Z,6.13
2023-04-17T04:05:36.749Z,5.18
2023-04-17T04:08:05.339Z,6.28
2023-04-17T04:10:35.421Z,6.97
2023-04-17T04:13:03.061Z,7.55
2023-04-17T04:15:30.136Z,6.15
2023-04-17T04:18:00.778Z,8.52
2023-04-17T04:20:28.128Z,6.03
2023-04-17T04:22:57.885Z,5.05
2023-04-17T04:25:26.122Z,2.15
2023-04-17T04:27:53.821Z,3.17
2023-04-17T04:30:27.040Z,2.42
2023-04-17T04:32:58.471Z,6.07
2023-04-17T04:35:26.170Z,5.78
2023-04-17T04:37:55.093Z,3.17
2023-04-17T04:40:22.152Z,11.13
2023-04-17T04:42:51.392Z,6.80
2023-04-17T04:45:19.269Z,6.05
2023-04-17T04:47:48.648Z,7.32
2023-04-17T04:52:51.768Z,3.50
2023-04-17T04:55:26.837Z,6.85
2023-04-17T04:57:54.478Z,4.93
2023-04-17T05:00:21.813Z,3.17
2023-04-17T05:02:49.233Z,4.30
2023-04-17T05:05:16.353Z,8.27
2023-04-17T05:07:43.754Z,3.90
2023-04-17T05:10:11.624Z,5.93
2023-04-17T05:12:48.518Z,4.43
2023-04-17T05:17:59.952Z,4.72
2023-04-17T05:20:27.196Z,1.83
2023-04-17T05:23:10.893Z,5.43
2023-04-17T05:25:38.876Z,3.00
2023-04-17T05:28:06.637Z,4.10
2023-04-17T05:30:34.146Z,4.35
2023-04-17T05:33:02.046Z,6.70
2023-04-17T05:35:30.586Z,4.95
2023-04-17T05:37:58.032Z,3.40
2023-04-17T05:40:25.462Z,5.18
2023-04-17T05:42:52.515Z,6.40
2023-04-17T05:45:20.009Z,5.47
2023-04-17T05:47:47.106Z,5.75
2023-04-17T05:50:14.656Z,4.15
2023-04-17T05:52:41.847Z,2.50
2023-04-17T05:55:11.448Z,2.95
2023-04-17T05:57:38.858Z,5.70
2023-04-17T06:00:11.608Z,2.65
2023-04-17T06:02:41.443Z,3.67
2023-04-17T06:05:09.805Z,3.05
2023-04-17T06:07:38.640Z,2.65
2023-04-17T06:10:08.883Z,3.22
2023-04-17T06:12:39.761Z,1.92
2023-04-17T06:17:50.243Z,4.05
2023-04-17T06:20:17.874Z,7.00
2023-04-17T06:22:46.953Z,4.45
2023-04-17T06:25:19.319Z,4.63
2023-04-17T06:27:50.981Z,3.97
2023-04-17T06:30:18.700Z,2.47
2023-04-17T06:32:45.727Z,3.50
2023-04-17T06:35:13.342Z,3.90
2023-04-17T06:37:40.557Z,2.88
2023-04-17T06:40:08.595Z,3.38
2023-04-17T06:42:35.871Z,3.30
2023-04-17T06:45:03.882Z,4.80
2023-04-17T06:47:31.078Z,2.80
2023-04-17T06:49:59.968Z,4.18
2023-04-17T06:52:27.075Z,0.93
2023-04-17T06:54:55.369Z,3.65
2023-04-17T06:57:22.631Z,2.72
2023-04-17T06:59:50.119Z,4.78
2023-04-17T07:02:18.281Z,5.80
2023-04-17T07:04:47.317Z,5.95
2023-04-17T07:07:16.991Z,4.22
2023-04-17T07:09:45.900Z,4.15
2023-04-17T07:12:12.895Z,2.65
2023-04-17T07:14:44.921Z,5.88
2023-04-17T07:17:12.023Z,2.92
2023-04-17T07:19:39.460Z,2.97
2023-04-17T07:22:06.607Z,2.47
2023-04-17T07:24:35.636Z,2.03
2023-04-17T07:27:04.133Z,2.55
2023-04-17T07:29:31.705Z,7.57
2023-04-17T07:31:59.135Z,7.05
2023-04-17T07:34:27.139Z,4.55
2023-04-17T07:36:55.472Z,4.20
2023-04-17T07:39:23.312Z,4.75
2023-04-17T07:41:50.667Z,3.30
2023-04-17T07:44:19.745Z,4.97
2023-04-17T07:46:55.880Z,2.50
2023-04-17T07:49:23.454Z,5.20
2023-04-17T07:51:50.895Z,10.10
2023-04-17T07:54:19.147Z,3.80
2023-04-17T07:56:46.753Z,4.40
2023-04-17T07:59:14.439Z,4.75
2023-04-17T08:01:41.694Z,2.03
2023-04-17T08:04:11.326Z,5.10
2023-04-17T08:06:39.182Z,6.65
2023-04-17T08:09:12.003Z,2.10
2023-04-17T08:11:49.772Z,4.88
2023-04-17T08:14:23.744Z,2.42
2023-04-17T08:16:50.808Z,3.83
2023-04-17T08:19:18.244Z,2.78
2023-04-17T08:21:47.776Z,2.08
2023-04-17T08:24:16.690Z,3.53
2023-04-17T08:26:45.788Z,3.58
2023-04-17T08:29:14.032Z,3.92
2023-04-17T08:31:42.477Z,2.90
2023-04-17T08:34:15.041Z,2.97
2023-04-17T08:36:43.355Z,4.05
2023-04-17T08:39:12.518Z,5.97
2023-04-17T08:41:52.128Z,2.20
2023-04-17T08:44:23.356Z,3.78
2023-04-17T08:46:51.241Z,4.03
2023-04-17T08:49:19.016Z,4.25
2023-04-17T08:51:47.264Z,2.50
2023-04-17T08:54:30.550Z,5.20
2023-04-17T08:56:57.861Z,4.72
2023-04-17T08:59:25.521Z,3.92
2023-04-17T09:02:05.892Z,3.97
2023-04-17T09:04:46.111Z,2.63
2023-04-17T09:07:23.784Z,4.55
2023-04-17T09:09:53.274Z,2.38
2023-04-17T09:12:21.458Z,5.40
2023-04-17T09:14:49.054Z,4.03
2023-04-17T09:17:17.687Z,4.40
2023-04-17T09:23:06.386Z,5.05
2023-04-17T09:25:35.812Z,5.25
2023-04-17T09:28:16.131Z,4.38
2023-04-17T09:30:53.002Z,2.22
2023-04-17T09:33:39.927Z,4.55
2023-04-17T09:36:22.300Z,4.68
2023-04-17T09:41:28.304Z,3.03
2023-04-17T09:44:05.545Z,7.07
2023-04-17T09:46:46.192Z,5.45
2023-04-17T09:49:26.356Z,2.47
2023-04-17T09:51:55.220Z,3.17
2023-04-17T09:54:23.495Z,4.60
2023-04-17T09:56:56.163Z,4.88
2023-04-17T09:59:25.012Z,2.17
2023-04-17T10:04:53.717Z,3.97
2023-04-17T10:07:21.807Z,3.47
2023-04-17T10:09:50.617Z,6.50
2023-04-17T10:12:21.767Z,6.63
2023-04-17T10:14:52.193Z,9.18
2023-04-17T10:17:32.610Z,5.60
2023-04-17T10:20:18.620Z,5.47
2023-04-17T10:22:57.236Z,4.68
2023-04-17T10:25:26.392Z,4.70
2023-04-17T10:27:55.214Z,3.00
2023-04-17T10:30:24.117Z,7.00
2023-04-17T10:33:16.563Z,5.00
2023-04-17T10:35:43.852Z,4.55
2023-04-17T10:38:12.184Z,4.78
2023-04-17T10:40:40.454Z,3.47
2023-04-17T10:43:20.528Z,3.90
2023-04-17T10:46:04.127Z,7.93
2023-04-17T10:48:38.438Z,4.47
2023-04-17T10:51:24.196Z,8.40
2023-04-17T10:54:05.355Z,12.30
2023-04-17T10:56:38.826Z,2.92
2023-04-17T10:59:06.282Z,6.22
2023-04-17T11:01:48.616Z,3.53
2023-04-17T11:04:31.037Z,7.95
2023-04-17T11:06:58.913Z,9.07
2023-04-17T11:09:28.989Z,1.70
2023-04-17T11:11:59.532Z,6.50
2023-04-17T11:14:27.084Z,7.13
2023-04-17T11:16:54.400Z,5.35
2023-04-17T11:19:24.763Z,6.53
2023-04-17T11:21:53.952Z,7.13
2023-04-17T11:24:27.416Z,5.65
2023-04-17T11:26:57.022Z,6.45
2023-04-17T11:29:27.359Z,8.70
2023-04-17T11:31:57.197Z,3.88
2023-04-17T11:34:27.392Z,5.55
2023-04-17T11:36:59.449Z,5.28
2023-04-17T11:39:29.833Z,3.10
2023-04-17T11:41:57.377Z,2.72
2023-04-17T11:44:25.977Z,3.17
2023-04-17T11:46:56.864Z,5.95
2023-04-17T11:49:38.286Z,6.72
2023-04-17T11:52:06.419Z,4.60
2023-04-17T11:54:38.381Z,5.18
2023-04-17T11:57:11.811Z,4.95
2023-04-17T11:59:44.967Z,4.72
2023-04-17T12:02:12.916Z,4.03
2023-04-17T12:04:44.803Z,4.43
2023-04-17T12:07:23.155Z,7.03
2023-04-17T12:10:02.608Z,3.83
2023-04-17T12:12:31.200Z,3.63
2023-04-17T12:14:59.332Z,6.35
2023-04-17T12:17:27.260Z,2.22
2023-04-17T12:19:55.005Z,8.00
2023-04-17T12:22:22.222Z,2.10
2023-04-17T12:24:49.659Z,4.95
2023-04-17T12:27:22.508Z,5.07
2023-04-17T12:29:49.954Z,3.72
2023-04-17T12:32:17.038Z,2.13
2023-04-17T12:34:44.561Z,2.60
2023-04-17T12:37:11.724Z,3.83
2023-04-17T12:39:39.140Z,2.20
2023-04-17T12:42:06.188Z,3.15
2023-04-17T12:44:33.858Z,4.35
2023-04-17T12:47:02.163Z,4.57
2023-04-17T12:49:29.679Z,7.72
2023-04-17T12:51:56.768Z,3.50
2023-04-17T12:54:24.220Z,5.32
2023-04-17T12:56:53.467Z,2.15
2023-04-17T12:59:20.951Z,2.90
2023-04-17T13:01:47.962Z,4.03
2023-04-17T13:04:15.926Z,3.63
2023-04-17T13:06:43.454Z,4.45
2023-04-17T13:09:11.045Z,6.45
2023-04-17T13:11:38.389Z,3.53
2023-04-17T13:14:07.907Z,3.72
2023-04-17T13:16:36.876Z,2.65
2023-04-17T13:19:04.562Z,5.93
2023-04-17T13:21:31.608Z,4.38
2023-04-17T13:23:58.967Z,3.08
2023-04-17T13:26:28.190Z,4.47
2023-04-17T13:28:55.811Z,2.45
2023-04-17T13:31:24.949Z,4.43
2023-04-17T13:34:00.698Z,7.85
2023-04-17T13:36:31.076Z,6.03
2023-04-17T13:38:58.617Z,3.55
2023-04-17T13:41:25.849Z,6.03
2023-04-17T13:43:55.285Z,3.05
2023-04-17T13:46:22.486Z,2.50
2023-04-17T13:48:49.887Z,1.67
2023-04-17T13:51:25.682Z,4.30
2023-04-17T13:53:54.169Z,2.42
2023-04-17T13:56:23.603Z,4.28
2023-04-17T13:58:52.546Z,3.20
2023-04-17T14:01:20.020Z,1.90
2023-04-17T14:03:47.897Z,3.50
2023-04-17T14:06:17.834Z,2.65
2023-04-17T14:08:47.326Z,7.97
2023-04-17T14:11:17.341Z,3.63
2023-04-17T14:13:44.878Z,2.13
2023-04-17T14:16:12.573Z,3.03
2023-04-17T14:18:40.014Z,2.33
2023-04-17T14:21:07.256Z,3.38
2023-04-17T14:23:34.656Z,2.28
2023-04-17T14:26:01.810Z,3.15
2023-04-17T14:28:29.278Z,2.17
2023-04-17T14:30:56.418Z,4.07
2023-04-17T14:33:25.129Z,6.75
2023-04-17T14:38:38.398Z,8.70
2023-04-17T14:41:05.999Z,1.80
2023-04-17T14:43:36.069Z,2.38
2023-04-17T14:46:03.734Z,2.97
2023-04-17T14:51:16.981Z,2.40
2023-04-17T14:53:45.788Z,7.03
2023-04-17T14:56:13.205Z,4.97
2023-04-17T14:58:40.797Z,3.35
2023-04-17T15:01:10.616Z,7.65
2023-04-17T15:03:38.599Z,3.15
2023-04-17T15:06:06.381Z,3.78
2023-04-17T15:08:34.015Z,2.95
2023-04-17T15:11:01.015Z,2.72
2023-04-17T15:13:29.738Z,2.33
2023-04-17T15:15:56.709Z,3.55
2023-04-17T15:18:25.653Z,2.67
2023-04-17T15:20:52.695Z,2.17
2023-04-17T15:23:22.964Z,4.13
2023-04-17T15:25:50.064Z,7.03
2023-04-17T15:28:21.262Z,2.55
2023-04-17T15:33:29.751Z,6.43
2023-04-17T15:35:58.779Z,5.15
2023-04-17T15:38:26.775Z,2.95
2023-04-17T15:40:54.528Z,4.28
2023-04-17T15:43:22.391Z,3.80
2023-04-17T15:45:49.606Z,2.75
2023-04-17T15:48:17.264Z,5.90
2023-04-17T15:50:44.833Z,7.35
2023-04-17T15:53:13.280Z,3.38
2023-04-17T15:55:41.391Z,2.92
2023-04-17T15:58:09.377Z,3.83
2023-04-17T16:00:36.534Z,3.92
2023-04-17T16:03:04.223Z,2.92
2023-04-17T16:05:31.374Z,4.43
2023-04-17T16:07:58.847Z,3.17
2023-04-17T16:10:26.185Z,3.92
2023-04-17T16:13:09.315Z,4.88
2023-04-17T16:15:37.248Z,2.47
2023-04-17T16:18:05.817Z,8.45
2023-04-17T16:20:33.366Z,5.82
2023-04-17T16:23:00.927Z,3.15
2023-04-17T16:25:29.757Z,4.10
2023-04-17T16:27:56.949Z,3.42
2023-04-17T16:30:24.518Z,4.95
2023-04-17T16:32:54.653Z,5.72
2023-04-17T16:35:23.067Z,6.22
2023-04-17T16:37:50.149Z,8.32
2023-04-17T16:40:18.212Z,10.30
2023-04-17T16:42:45.288Z,12.82
2023-04-17T16:45:12.758Z,14.93
2023-04-17T16:47:39.904Z,12.80
2023-04-17T16:50:09.825Z,10.82
2023-04-17T16:52:39.912Z,11.02
2023-04-17T16:55:08.127Z,9.07
2023-04-17T16:57:42.997Z,8.18
2023-04-17T17:00:11.760Z,5.10
2023-04-17T17:02:38.914Z,7.28
2023-04-17T17:05:09.915Z,6.97
2023-04-17T17:07:36.904Z,7.18
2023-04-17T17:10:04.635Z,8.75
2023-04-17T17:12:31.799Z,5.10
2023-04-17T17:14:59.862Z,9.63
2023-04-17T17:17:28.269Z,7.00
2023-04-17T17:19:55.847Z,5.28
2023-04-17T17:22:23.083Z,5.07
2023-04-17T17:24:51.498Z,9.98
2023-04-17T17:27:20.635Z,5.00
2023-04-17T17:29:48.396Z,5.78
2023-04-17T17:32:18.968Z,6.60
2023-04-17T17:34:47.169Z,9.82
2023-04-17T17:37:14.775Z,9.93
2023-04-17T17:39:42.896Z,7.22
2023-04-17T17:42:09.992Z,9.10
2023-04-17T17:44:38.676Z,8.18
2023-04-17T17:47:07.653Z,5.60
2023-04-17T17:49:35.730Z,7.60
2023-04-17T17:52:02.980Z,6.45
2023-04-17T17:54:34.571Z,13.00
2023-04-17T17:57:01.607Z,8.32
2023-04-17T17:59:29.405Z,7.15
2023-04-17T18:01:57.526Z,6.32
2023-04-17T18:04:25.185Z,11.10
2023-04-17T18:06:52.467Z,8.13
2023-04-17T18:09:20.016Z,10.77
2023-04-17T18:11:47.319Z,10.18
2023-04-17T18:14:14.915Z,7.05
2023-04-17T18:16:43.107Z,7.00
2023-04-17T18:19:10.938Z,7.07
2023-04-17T18:21:38.174Z,7.00
2023-04-17T18:24:06.281Z,8.73
2023-04-17T18:26:34.246Z,10.65
2023-04-17T18:29:02.028Z,5.53
2023-04-17T18:31:29.376Z,6.03
2023-04-17T18:34:02.182Z,9.43
2023-04-17T18:36:29.985Z,9.50
2023-04-17T18:38:57.749Z,12.18
2023-04-17T18:41:26.687Z,11.75
2023-04-17T18:43:54.404Z,11.80
2023-04-17T18:46:23.098Z,9.85
2023-04-17T18:48:50.620Z,9.55
2023-04-17T18:51:17.925Z,13.35
2023-04-17T18:53:45.510Z,12.48
2023-04-17T18:56:13.892Z,17.60
2023-04-17T18:58:41.397Z,17.17
2023-04-17T19:01:10.563Z,14.65
2023-04-17T19:03:39.945Z,14.57
2023-04-17T19:06:07.147Z,16.50
2023-04-17T19:08:35.610Z,15.82
2023-04-17T19:11:03.338Z,16.52
2023-04-17T19:13:31.248Z,13.55
2023-04-17T19:15:58.667Z,13.05
2023-04-17T19:18:34.210Z,12.90
2023-04-17T19:21:02.264Z,10.45
2023-04-17T19:23:31.295Z,14.95
2023-04-17T19:25:58.859Z,14.80
2023-04-17T19:28:28.485Z,12.77
2023-04-17T19:30:57.843Z,14.70
2023-04-17T19:33:26.873Z,11.98
2023-04-17T19:35:54.196Z,11.07
2023-04-17T19:38:21.673Z,9.60
2023-04-17T19:41:19.229Z,10.68
2023-04-17T19:43:49.953Z,8.73
2023-04-17T19:46:18.531Z,9.70
2023-04-17T19:48:47.449Z,15.80
2023-04-17T19:51:15.418Z,11.82
2023-04-17T19:53:46.170Z,11.63
2023-04-17T19:56:13.516Z,8.30
2023-04-17T19:58:41.765Z,14.10
2023-04-17T20:01:09.036Z,9.23
2023-04-17T20:03:38.603Z,9.63
2023-04-17T20:06:06.080Z,10.23
2023-04-17T20:08:33.579Z,10.60
2023-04-17T20:11:00.884Z,9.27
2023-04-17T20:13:28.407Z,8.93
2023-04-17T20:15:55.825Z,9.07
2023-04-17T20:18:26.278Z,7.85
2023-04-17T20:20:53.509Z,9.27
2023-04-17T20:23:21.460Z,7.20
2023-04-17T20:25:50.760Z,9.30
2023-04-17T20:28:18.765Z,13.40
2023-04-17T20:30:46.037Z,10.05
2023-04-17T20:33:13.928Z,8.93
2023-04-17T20:35:42.787Z,8.57
2023-04-17T20:38:10.329Z,9.52
2023-04-17T20:40:41.519Z,6.22
2023-04-17T20:43:11.354Z,6.45
2023-04-17T20:45:40.408Z,8.55
2023-04-17T20:48:07.787Z,6.00
2023-04-17T20:50:34.873Z,7.57
2023-04-17T20:53:02.213Z,6.07
2023-04-17T20:55:29.180Z,8.85
2023-04-17T20:57:56.529Z,7.50
2023-04-17T21:00:23.593Z,6.82
2023-04-17T21:02:51.109Z,4.57
2023-04-17T21:05:19.411Z,5.13
2023-04-17T21:07:47.200Z,5.40
2023-04-17T21:10:15.121Z,5.47
2023-04-17T21:12:42.454Z,4.57
2023-04-17T21:15:09.830Z,6.78
2023-04-17T21:17:37.201Z,7.15
2023-04-17T21:20:08.053Z,8.02
2023-04-17T21:22:37.150Z,7.93
2023-04-17T21:25:04.563Z,7.53
2023-04-17T21:27:31.847Z,12.15
2023-04-17T21:29:58.860Z,9.05
2023-04-17T21:32:26.312Z,8.75
2023-04-17T21:34:53.301Z,10.15
2023-04-17T21:37:22.604Z,6.95
2023-04-17T21:42:17.270Z,4.30
2023-04-17T21:44:44.320Z,5.75
2023-04-17T21:47:11.593Z,9.50
2023-04-17T21:49:38.639Z,6.22
2023-04-17T21:52:06.060Z,6.18
2023-04-17T21:54:33.750Z,6.18
2023-04-17T21:57:02.230Z,6.18
2023-04-17T21:59:29.358Z,5.78
2023-04-17T22:01:56.815Z,6.45
2023-04-17T22:04:23.860Z,5.57
2023-04-17T22:06:52.169Z,4.65
2023-04-17T22:09:21.296Z,5.93
2023-04-17T22:11:48.747Z,8.20
2023-04-17T22:14:16.927Z,6.25
2023-04-17T22:16:44.668Z,9.13
2023-04-17T22:19:11.750Z,6.57
2023-04-17T22:21:39.149Z,6.75
2023-04-17T22:24:06.549Z,5.43
2023-04-17T22:26:34.014Z,7.95
2023-04-17T22:29:01.058Z,5.22
2023-04-17T22:31:28.611Z,6.18
2023-04-17T22:33:55.834Z,5.75
2023-04-17T22:36:23.341Z,5.78
2023-04-17T22:38:50.346Z,5.63
2023-04-17T22:41:17.680Z,9.40
2023-04-17T22:43:48.454Z,3.60
2023-04-17T22:46:16.494Z,7.22
2023-04-17T22:48:46.288Z,5.63
2023-04-17T22:51:15.276Z,3.17
2023-04-17T22:53:43.179Z,3.08
2023-04-17T22:56:12.912Z,9.02
2023-04-17T22:58:39.954Z,4.07
2023-04-17T23:01:07.335Z,2.53
2023-04-17T23:03:35.111Z,5.10
2023-04-17T23:06:03.222Z,2.35
2023-04-17T23:08:31.103Z,4.85
2023-04-17T23:11:00.152Z,4.78
2023-04-17T23:13:28.246Z,4.00
2023-04-17T23:15:56.118Z,3.72
2023-04-17T23:18:23.696Z,7.18
2023-04-17T23:20:51.216Z,4.72
2023-04-17T23:23:20.676Z,6.25
2023-04-17T23:25:48.436Z,6.40
2023-04-17T23:28:15.603Z,5.38
2023-04-17T23:30:42.929Z,9.93
2023-04-17T23:33:10.223Z,5.68
2023-04-17T23:35:37.545Z,3.22
2023-04-17T23:38:04.552Z,6.90
2023-04-17T23:40:32.869Z,3.88
2023-04-17T23:43:00.183Z,3.60
2023-04-17T23:45:27.508Z,5.57
2023-04-17T23:47:54.591Z,11.02
2023-04-17T23:50:23.243Z,4.10
2023-04-17T23:52:50.471Z,8.45
2023-04-17T23:55:17.813Z,5.55
2023-04-17T23:57:44.796Z,17.40
